sensor_id;sensor_type;location;lat;lon;timestamp;temperature;humidity
58554;DHT22;48119;53.218;6.576;2022-12-07T00:01:15;8.80;99.00
58554;DHT22;48119;53.218;6.576;2022-12-07T00:03:42;8.80;99.00
58554;DHT22;48119;53.218;6.576;2022-12-07T00:06:10;8.80;99.00
58554;DHT22;48119;53.218;6.576;2022-12-07T00:08:37;8.80;99.10
58554;DHT22;48119;53.218;6.576;2022-12-07T00:11:08;8.80;99.10
58554;DHT22;48119;53.218;6.576;2022-12-07T00:13:35;8.80;99.20
58554;DHT22;48119;53.218;6.576;2022-12-07T00:18:31;8.90;99.20
58554;DHT22;48119;53.218;6.576;2022-12-07T00:21:06;8.80;99.10
58554;DHT22;48119;53.218;6.576;2022-12-07T00:23:34;8.90;99.10
58554;DHT22;48119;53.218;6.576;2022-12-07T00:26:07;8.90;99.10
58554;DHT22;48119;53.218;6.576;2022-12-07T00:28:33;8.90;99.20
58554;DHT22;48119;53.218;6.576;2022-12-07T00:31:01;8.90;99.20
58554;DHT22;48119;53.218;6.576;2022-12-07T00:33:27;8.90;99.20
58554;DHT22;48119;53.218;6.576;2022-12-07T00:35:58;8.90;99.30
58554;DHT22;48119;53.218;6.576;2022-12-07T00:38:24;8.90;99.30
58554;DHT22;48119;53.218;6.576;2022-12-07T00:41:01;8.90;99.30
58554;DHT22;48119;53.218;6.576;2022-12-07T00:43:27;8.80;99.30
58554;DHT22;48119;53.218;6.576;2022-12-07T00:45:54;8.90;99.40
58554;DHT22;48119;53.218;6.576;2022-12-07T00:48:20;8.80;99.40
58554;DHT22;48119;53.218;6.576;2022-12-07T00:50:46;8.90;99.50
58554;DHT22;48119;53.218;6.576;2022-12-07T00:53:12;8.80;99.30
58554;DHT22;48119;53.218;6.576;2022-12-07T00:55:38;8.80;99.10
58554;DHT22;48119;53.218;6.576;2022-12-07T00:58:04;8.80;99.00
58554;DHT22;48119;53.218;6.576;2022-12-07T01:00:30;8.80;98.90
58554;DHT22;48119;53.218;6.576;2022-12-07T01:02:56;8.80;98.80
58554;DHT22;48119;53.218;6.576;2022-12-07T01:05:22;8.80;98.80
58554;DHT22;48119;53.218;6.576;2022-12-07T01:07:48;8.80;98.70
58554;DHT22;48119;53.218;6.576;2022-12-07T01:10:14;8.80;98.70
58554;DHT22;48119;53.218;6.576;2022-12-07T01:12:40;8.90;98.70
58554;DHT22;48119;53.218;6.576;2022-12-07T01:15:07;8.80;98.50
58554;DHT22;48119;53.218;6.576;2022-12-07T01:17:33;8.80;98.50
58554;DHT22;48119;53.218;6.576;2022-12-07T01:19:59;8.80;98.40
58554;DHT22;48119;53.218;6.576;2022-12-07T01:22:25;8.90;98.40
58554;DHT22;48119;53.218;6.576;2022-12-07T01:24:51;8.90;98.30
58554;DHT22;48119;53.218;6.576;2022-12-07T01:27:16;8.90;98.30
58554;DHT22;48119;53.218;6.576;2022-12-07T01:29:42;8.90;98.30
58554;DHT22;48119;53.218;6.576;2022-12-07T01:32:08;8.90;98.30
58554;DHT22;48119;53.218;6.576;2022-12-07T01:34:34;8.90;98.30
58554;DHT22;48119;53.218;6.576;2022-12-07T01:36:59;8.90;98.30
58554;DHT22;48119;53.218;6.576;2022-12-07T01:39:25;8.90;98.40
58554;DHT22;48119;53.218;6.576;2022-12-07T01:41:52;8.90;98.40
58554;DHT22;48119;53.218;6.576;2022-12-07T01:44:23;8.90;98.50
58554;DHT22;48119;53.218;6.576;2022-12-07T01:46:56;8.90;98.80
58554;DHT22;48119;53.218;6.576;2022-12-07T01:49:32;8.90;99.00
58554;DHT22;48119;53.218;6.576;2022-12-07T01:54:41;8.90;99.30
58554;DHT22;48119;53.218;6.576;2022-12-07T01:57:08;8.90;99.40
58554;DHT22;48119;53.218;6.576;2022-12-07T01:59:34;8.90;99.60
58554;DHT22;48119;53.218;6.576;2022-12-07T02:02:03;8.90;99.60
58554;DHT22;48119;53.218;6.576;2022-12-07T02:04:37;8.80;99.50
58554;DHT22;48119;53.218;6.576;2022-12-07T02:07:03;8.80;99.60
58554;DHT22;48119;53.218;6.576;2022-12-07T02:09:30;8.80;99.60
58554;DHT22;48119;53.218;6.576;2022-12-07T02:11:56;8.80;99.70
58554;DHT22;48119;53.218;6.576;2022-12-07T02:14:22;8.80;99.80
58554;DHT22;48119;53.218;6.576;2022-12-07T02:19:47;8.70;99.90
58554;DHT22;48119;53.218;6.576;2022-12-07T02:27:47;8.70;99.90
58554;DHT22;48119;53.218;6.576;2022-12-07T02:30:18;8.70;99.90
58554;DHT22;48119;53.218;6.576;2022-12-07T02:38:25;8.70;99.90
58554;DHT22;48119;53.218;6.576;2022-12-07T02:40:55;8.70;99.90
58554;DHT22;48119;53.218;6.576;2022-12-07T02:43:28;8.70;99.90
58554;DHT22;48119;53.218;6.576;2022-12-07T02:46:01;8.60;99.90
58554;DHT22;48119;53.218;6.576;2022-12-07T02:48:28;8.70;99.90
58554;DHT22;48119;53.218;6.576;2022-12-07T02:50:57;8.60;99.90
58554;DHT22;48119;53.218;6.576;2022-12-07T02:53:43;8.60;99.90
58554;DHT22;48119;53.218;6.576;2022-12-07T02:59:24;8.60;99.90
58554;DHT22;48119;53.218;6.576;2022-12-07T03:07:27;8.60;99.90
58554;DHT22;48119;53.218;6.576;2022-12-07T03:10:07;8.60;99.90
58554;DHT22;48119;53.218;6.576;2022-12-07T03:12:46;8.60;99.90
58554;DHT22;48119;53.218;6.576;2022-12-07T03:15:27;8.60;99.90
58554;DHT22;48119;53.218;6.576;2022-12-07T03:17:58;8.60;99.90
58554;DHT22;48119;53.218;6.576;2022-12-07T03:20:26;8.60;99.90
58554;DHT22;48119;53.218;6.576;2022-12-07T03:22:54;8.60;99.80
58554;DHT22;48119;53.218;6.576;2022-12-07T03:25:20;8.60;99.80
58554;DHT22;48119;53.218;6.576;2022-12-07T03:27:57;8.60;99.80
58554;DHT22;48119;53.218;6.576;2022-12-07T03:30:36;8.60;99.80
58554;DHT22;48119;53.218;6.576;2022-12-07T03:33:12;8.50;99.90
58554;DHT22;48119;53.218;6.576;2022-12-07T03:36:01;8.60;99.90
58554;DHT22;48119;53.218;6.576;2022-12-07T03:38:54;8.50;99.90
58554;DHT22;48119;53.218;6.576;2022-12-07T03:41:25;8.50;99.90
58554;DHT22;48119;53.218;6.576;2022-12-07T03:43:54;8.50;99.90
58554;DHT22;48119;53.218;6.576;2022-12-07T03:46:43;8.50;99.90
58554;DHT22;48119;53.218;6.576;2022-12-07T03:49:20;8.50;99.90
58554;DHT22;48119;53.218;6.576;2022-12-07T03:52:00;8.50;99.90
58554;DHT22;48119;53.218;6.576;2022-12-07T03:57:17;8.50;99.90
58554;DHT22;48119;53.218;6.576;2022-12-07T03:59:44;8.50;99.90
58554;DHT22;48119;53.218;6.576;2022-12-07T04:02:13;8.50;99.90
58554;DHT22;48119;53.218;6.576;2022-12-07T04:04:39;8.50;99.90
58554;DHT22;48119;53.218;6.576;2022-12-07T04:07:06;8.50;99.90
58554;DHT22;48119;53.218;6.576;2022-12-07T04:09:32;8.50;99.90
58554;DHT22;48119;53.218;6.576;2022-12-07T04:11:57;8.40;99.90
58554;DHT22;48119;53.218;6.576;2022-12-07T04:14:23;8.40;99.90
58554;DHT22;48119;53.218;6.576;2022-12-07T04:16:51;8.40;99.90
58554;DHT22;48119;53.218;6.576;2022-12-07T04:19:19;8.40;99.90
58554;DHT22;48119;53.218;6.576;2022-12-07T04:21:46;8.40;99.90
58554;DHT22;48119;53.218;6.576;2022-12-07T04:24:14;8.40;99.90
58554;DHT22;48119;53.218;6.576;2022-12-07T04:26:40;8.40;99.90
58554;DHT22;48119;53.218;6.576;2022-12-07T04:29:07;8.40;99.90
58554;DHT22;48119;53.218;6.576;2022-12-07T04:31:33;8.40;99.80
58554;DHT22;48119;53.218;6.576;2022-12-07T04:33:58;8.40;99.80
58554;DHT22;48119;53.218;6.576;2022-12-07T04:36:24;8.50;99.80
58554;DHT22;48119;53.218;6.576;2022-12-07T04:38:53;8.50;99.80
58554;DHT22;48119;53.218;6.576;2022-12-07T04:41:18;8.50;99.90
58554;DHT22;48119;53.218;6.576;2022-12-07T04:43:56;8.40;99.90
58554;DHT22;48119;53.218;6.576;2022-12-07T04:46:23;8.40;99.60
58554;DHT22;48119;53.218;6.576;2022-12-07T04:48:50;8.40;99.60
58554;DHT22;48119;53.218;6.576;2022-12-07T04:51:20;8.40;99.50
58554;DHT22;48119;53.218;6.576;2022-12-07T04:53:46;8.40;99.60
58554;DHT22;48119;53.218;6.576;2022-12-07T04:56:11;8.40;99.60
58554;DHT22;48119;53.218;6.576;2022-12-07T04:58:37;8.40;99.60
58554;DHT22;48119;53.218;6.576;2022-12-07T05:01:03;8.40;99.40
58554;DHT22;48119;53.218;6.576;2022-12-07T05:03:29;8.40;99.50
58554;DHT22;48119;53.218;6.576;2022-12-07T05:05:55;8.40;99.60
58554;DHT22;48119;53.218;6.576;2022-12-07T05:08:20;8.30;99.60
58554;DHT22;48119;53.218;6.576;2022-12-07T05:10:48;8.40;99.70
58554;DHT22;48119;53.218;6.576;2022-12-07T05:13:14;8.30;99.70
58554;DHT22;48119;53.218;6.576;2022-12-07T05:15:40;8.30;99.80
58554;DHT22;48119;53.218;6.576;2022-12-07T05:18:06;8.30;99.80
58554;DHT22;48119;53.218;6.576;2022-12-07T05:20:31;8.30;99.80
58554;DHT22;48119;53.218;6.576;2022-12-07T05:22:57;8.30;99.80
58554;DHT22;48119;53.218;6.576;2022-12-07T05:25:24;8.30;99.80
58554;DHT22;48119;53.218;6.576;2022-12-07T05:27:49;8.30;99.80
58554;DHT22;48119;53.218;6.576;2022-12-07T05:30:15;8.30;99.80
58554;DHT22;48119;53.218;6.576;2022-12-07T05:32:41;8.30;99.90
58554;DHT22;48119;53.218;6.576;2022-12-07T05:35:07;8.30;99.90
58554;DHT22;48119;53.218;6.576;2022-12-07T05:37:33;8.20;99.90
58554;DHT22;48119;53.218;6.576;2022-12-07T05:40:00;8.20;99.80
58554;DHT22;48119;53.218;6.576;2022-12-07T05:42:27;8.20;99.80
58554;DHT22;48119;53.218;6.576;2022-12-07T05:44:54;8.20;99.80
58554;DHT22;48119;53.218;6.576;2022-12-07T05:47:20;8.20;99.70
58554;DHT22;48119;53.218;6.576;2022-12-07T05:49:46;8.20;99.70
58554;DHT22;48119;53.218;6.576;2022-12-07T05:52:12;8.20;99.70
58554;DHT22;48119;53.218;6.576;2022-12-07T05:54:38;8.10;99.70
58554;DHT22;48119;53.218;6.576;2022-12-07T05:57:04;8.10;99.70
58554;DHT22;48119;53.218;6.576;2022-12-07T05:59:29;8.10;99.70
58554;DHT22;48119;53.218;6.576;2022-12-07T06:02:03;8.10;99.70
58554;DHT22;48119;53.218;6.576;2022-12-07T06:04:34;8.10;99.60
58554;DHT22;48119;53.218;6.576;2022-12-07T06:07:00;8.00;99.60
58554;DHT22;48119;53.218;6.576;2022-12-07T06:09:27;8.10;99.60
58554;DHT22;48119;53.218;6.576;2022-12-07T06:11:54;8.10;99.60
58554;DHT22;48119;53.218;6.576;2022-12-07T06:14:55;8.10;99.60
58554;DHT22;48119;53.218;6.576;2022-12-07T06:17:21;8.10;99.50
58554;DHT22;48119;53.218;6.576;2022-12-07T06:19:47;8.00;99.40
58554;DHT22;48119;53.218;6.576;2022-12-07T06:22:13;8.00;99.40
58554;DHT22;48119;53.218;6.576;2022-12-07T06:24:42;8.00;99.30
58554;DHT22;48119;53.218;6.576;2022-12-07T06:27:08;8.10;99.40
58554;DHT22;48119;53.218;6.576;2022-12-07T06:29:34;8.00;99.20
58554;DHT22;48119;53.218;6.576;2022-12-07T06:32:00;8.00;99.10
58554;DHT22;48119;53.218;6.576;2022-12-07T06:34:26;8.10;99.10
58554;DHT22;48119;53.218;6.576;2022-12-07T06:36:53;8.10;99.00
58554;DHT22;48119;53.218;6.576;2022-12-07T06:39:25;8.10;98.90
58554;DHT22;48119;53.218;6.576;2022-12-07T06:41:52;8.10;98.90
58554;DHT22;48119;53.218;6.576;2022-12-07T06:44:18;8.20;98.90
58554;DHT22;48119;53.218;6.576;2022-12-07T06:46:44;8.20;98.90
58554;DHT22;48119;53.218;6.576;2022-12-07T06:49:13;8.10;98.80
58554;DHT22;48119;53.218;6.576;2022-12-07T06:51:39;8.20;98.70
58554;DHT22;48119;53.218;6.576;2022-12-07T06:54:11;8.20;98.60
58554;DHT22;48119;53.218;6.576;2022-12-07T06:56:38;8.20;98.70
58554;DHT22;48119;53.218;6.576;2022-12-07T06:59:05;8.10;98.70
58554;DHT22;48119;53.218;6.576;2022-12-07T07:01:32;8.10;98.70
58554;DHT22;48119;53.218;6.576;2022-12-07T07:03:59;8.10;98.70
58554;DHT22;48119;53.218;6.576;2022-12-07T07:06:25;8.10;98.70
58554;DHT22;48119;53.218;6.576;2022-12-07T07:08:51;8.10;98.70
58554;DHT22;48119;53.218;6.576;2022-12-07T07:11:17;8.00;98.70
58554;DHT22;48119;53.218;6.576;2022-12-07T07:13:42;8.00;98.90
58554;DHT22;48119;53.218;6.576;2022-12-07T07:16:08;8.00;99.00
58554;DHT22;48119;53.218;6.576;2022-12-07T07:18:35;7.90;99.20
58554;DHT22;48119;53.218;6.576;2022-12-07T07:21:01;7.90;99.30
58554;DHT22;48119;53.218;6.576;2022-12-07T07:23:26;7.90;99.50
58554;DHT22;48119;53.218;6.576;2022-12-07T07:25:52;7.90;99.70
58554;DHT22;48119;53.218;6.576;2022-12-07T07:28:18;7.90;99.80
58554;DHT22;48119;53.218;6.576;2022-12-07T07:30:44;7.90;99.80
58554;DHT22;48119;53.218;6.576;2022-12-07T07:33:10;7.90;99.80
58554;DHT22;48119;53.218;6.576;2022-12-07T07:35:36;8.00;99.70
58554;DHT22;48119;53.218;6.576;2022-12-07T07:38:02;7.90;99.40
58554;DHT22;48119;53.218;6.576;2022-12-07T07:40:28;8.00;99.30
58554;DHT22;48119;53.218;6.576;2022-12-07T07:42:55;8.00;99.30
58554;DHT22;48119;53.218;6.576;2022-12-07T07:45:22;8.00;99.30
58554;DHT22;48119;53.218;6.576;2022-12-07T07:47:49;8.10;99.40
58554;DHT22;48119;53.218;6.576;2022-12-07T07:50:16;8.10;99.40
58554;DHT22;48119;53.218;6.576;2022-12-07T07:52:42;8.10;99.40
58554;DHT22;48119;53.218;6.576;2022-12-07T07:55:08;8.10;99.50
58554;DHT22;48119;53.218;6.576;2022-12-07T07:57:35;8.10;99.50
58554;DHT22;48119;53.218;6.576;2022-12-07T08:00:04;8.10;99.60
58554;DHT22;48119;53.218;6.576;2022-12-07T08:02:30;8.00;99.60
58554;DHT22;48119;53.218;6.576;2022-12-07T08:04:56;8.00;99.70
58554;DHT22;48119;53.218;6.576;2022-12-07T08:07:22;8.00;99.70
58554;DHT22;48119;53.218;6.576;2022-12-07T08:09:48;8.00;99.70
58554;DHT22;48119;53.218;6.576;2022-12-07T08:12:15;7.90;99.70
58554;DHT22;48119;53.218;6.576;2022-12-07T08:14:40;7.90;99.70
58554;DHT22;48119;53.218;6.576;2022-12-07T08:17:08;7.90;99.70
58554;DHT22;48119;53.218;6.576;2022-12-07T08:19:34;8.00;99.70
58554;DHT22;48119;53.218;6.576;2022-12-07T08:22:00;7.90;99.60
58554;DHT22;48119;53.218;6.576;2022-12-07T08:24:26;7.90;99.50
58554;DHT22;48119;53.218;6.576;2022-12-07T08:26:52;8.00;99.50
58554;DHT22;48119;53.218;6.576;2022-12-07T08:29:30;8.00;99.50
58554;DHT22;48119;53.218;6.576;2022-12-07T08:31:55;8.00;99.60
58554;DHT22;48119;53.218;6.576;2022-12-07T08:34:21;8.00;99.50
58554;DHT22;48119;53.218;6.576;2022-12-07T08:36:49;7.90;99.50
58554;DHT22;48119;53.218;6.576;2022-12-07T08:39:14;7.90;99.50
58554;DHT22;48119;53.218;6.576;2022-12-07T08:41:40;7.90;99.60
58554;DHT22;48119;53.218;6.576;2022-12-07T08:44:06;7.90;99.60
58554;DHT22;48119;53.218;6.576;2022-12-07T08:46:45;7.90;99.60
58554;DHT22;48119;53.218;6.576;2022-12-07T08:49:22;7.90;99.60
58554;DHT22;48119;53.218;6.576;2022-12-07T08:51:49;7.90;99.50
58554;DHT22;48119;53.218;6.576;2022-12-07T08:54:17;7.90;99.50
58554;DHT22;48119;53.218;6.576;2022-12-07T08:56:45;8.00;99.50
58554;DHT22;48119;53.218;6.576;2022-12-07T08:59:14;8.00;99.50
58554;DHT22;48119;53.218;6.576;2022-12-07T09:01:43;8.00;99.50
58554;DHT22;48119;53.218;6.576;2022-12-07T09:04:08;8.00;99.40
58554;DHT22;48119;53.218;6.576;2022-12-07T09:06:34;8.00;99.40
58554;DHT22;48119;53.218;6.576;2022-12-07T09:09:01;7.90;99.50
58554;DHT22;48119;53.218;6.576;2022-12-07T09:11:27;8.00;99.50
58554;DHT22;48119;53.218;6.576;2022-12-07T09:13:53;8.00;99.40
58554;DHT22;48119;53.218;6.576;2022-12-07T09:16:19;8.10;99.40
58554;DHT22;48119;53.218;6.576;2022-12-07T09:18:44;8.10;99.40
58554;DHT22;48119;53.218;6.576;2022-12-07T09:21:10;8.10;99.40
58554;DHT22;48119;53.218;6.576;2022-12-07T09:23:36;8.20;99.40
58554;DHT22;48119;53.218;6.576;2022-12-07T09:26:03;8.20;99.40
58554;DHT22;48119;53.218;6.576;2022-12-07T09:28:31;8.20;99.40
58554;DHT22;48119;53.218;6.576;2022-12-07T09:30:57;8.20;99.40
58554;DHT22;48119;53.218;6.576;2022-12-07T09:33:23;8.30;99.30
58554;DHT22;48119;53.218;6.576;2022-12-07T09:35:50;8.30;99.10
58554;DHT22;48119;53.218;6.576;2022-12-07T09:38:17;8.30;98.90
58554;DHT22;48119;53.218;6.576;2022-12-07T09:40:43;8.30;98.80
58554;DHT22;48119;53.218;6.576;2022-12-07T09:43:18;8.40;98.70
58554;DHT22;48119;53.218;6.576;2022-12-07T09:45:45;8.40;98.40
58554;DHT22;48119;53.218;6.576;2022-12-07T09:48:21;8.40;98.20
58554;DHT22;48119;53.218;6.576;2022-12-07T09:50:49;8.40;97.90
58554;DHT22;48119;53.218;6.576;2022-12-07T09:53:32;8.40;98.00
58554;DHT22;48119;53.218;6.576;2022-12-07T09:55:59;8.50;98.10
58554;DHT22;48119;53.218;6.576;2022-12-07T09:58:27;8.50;98.10
58554;DHT22;48119;53.218;6.576;2022-12-07T10:03:35;8.50;98.20
58554;DHT22;48119;53.218;6.576;2022-12-07T10:06:02;8.50;98.30
58554;DHT22;48119;53.218;6.576;2022-12-07T10:08:36;8.50;98.30
58554;DHT22;48119;53.218;6.576;2022-12-07T10:11:02;8.50;98.40
58554;DHT22;48119;53.218;6.576;2022-12-07T10:13:48;8.50;98.50
58554;DHT22;48119;53.218;6.576;2022-12-07T10:22:19;8.50;98.80
58554;DHT22;48119;53.218;6.576;2022-12-07T10:25:09;8.50;98.70
58554;DHT22;48119;53.218;6.576;2022-12-07T10:27:41;8.60;98.90
58554;DHT22;48119;53.218;6.576;2022-12-07T10:30:12;8.60;98.90
58554;DHT22;48119;53.218;6.576;2022-12-07T10:32:50;8.60;98.80
58554;DHT22;48119;53.218;6.576;2022-12-07T10:35:29;8.60;98.90
58554;DHT22;48119;53.218;6.576;2022-12-07T10:37:57;8.60;99.00
58554;DHT22;48119;53.218;6.576;2022-12-07T10:40:34;8.60;99.00
58554;DHT22;48119;53.218;6.576;2022-12-07T10:43:07;8.60;99.00
58554;DHT22;48119;53.218;6.576;2022-12-07T10:51:46;8.70;99.20
58554;DHT22;48119;53.218;6.576;2022-12-07T10:54:26;8.70;99.30
58554;DHT22;48119;53.218;6.576;2022-12-07T10:57:42;8.70;99.30
58554;DHT22;48119;53.218;6.576;2022-12-07T11:00:18;8.80;99.30
58554;DHT22;48119;53.218;6.576;2022-12-07T11:22:18;8.80;99.50
58554;DHT22;48119;53.218;6.576;2022-12-07T11:25:09;8.70;99.60
58554;DHT22;48119;53.218;6.576;2022-12-07T11:33:29;8.70;99.60
58554;DHT22;48119;53.218;6.576;2022-12-07T11:38:55;8.70;99.70
58554;DHT22;48119;53.218;6.576;2022-12-07T11:41:33;8.80;99.50
58554;DHT22;48119;53.218;6.576;2022-12-07T11:46:49;8.80;99.50
58554;DHT22;48119;53.218;6.576;2022-12-07T11:52:57;8.80;99.10
58554;DHT22;48119;53.218;6.576;2022-12-07T11:55:14;8.80;99.10
58554;DHT22;48119;53.218;6.576;2022-12-07T11:57:46;8.80;99.00
58554;DHT22;48119;53.218;6.576;2022-12-07T12:00:16;8.80;98.80
58554;DHT22;48119;53.218;6.576;2022-12-07T12:03:04;8.80;98.70
58554;DHT22;48119;53.218;6.576;2022-12-07T12:05:30;8.90;98.50
58554;DHT22;48119;53.218;6.576;2022-12-07T12:08:20;8.80;98.60
58554;DHT22;48119;53.218;6.576;2022-12-07T12:14:02;8.80;98.60
58554;DHT22;48119;53.218;6.576;2022-12-07T12:22:24;8.80;98.70
58554;DHT22;48119;53.218;6.576;2022-12-07T12:24:51;8.80;98.80
58554;DHT22;48119;53.218;6.576;2022-12-07T12:27:29;8.80;98.90
58554;DHT22;48119;53.218;6.576;2022-12-07T12:29:59;8.80;98.90
58554;DHT22;48119;53.218;6.576;2022-12-07T12:35:26;8.80;99.00
58554;DHT22;48119;53.218;6.576;2022-12-07T12:37:54;8.80;99.10
58554;DHT22;48119;53.218;6.576;2022-12-07T12:42:55;8.90;98.90
58554;DHT22;48119;53.218;6.576;2022-12-07T12:50:37;8.90;98.80
58554;DHT22;48119;53.218;6.576;2022-12-07T12:53:25;8.90;98.70
58554;DHT22;48119;53.218;6.576;2022-12-07T12:56:29;8.90;98.70
58554;DHT22;48119;53.218;6.576;2022-12-07T12:59:21;8.90;98.80
58554;DHT22;48119;53.218;6.576;2022-12-07T13:04:56;8.80;98.50
58554;DHT22;48119;53.218;6.576;2022-12-07T13:18:35;8.80;98.90
58554;DHT22;48119;53.218;6.576;2022-12-07T13:31:31;8.70;98.90
58554;DHT22;48119;53.218;6.576;2022-12-07T13:33:58;8.70;98.70
58554;DHT22;48119;53.218;6.576;2022-12-07T13:36:33;8.70;98.60
58554;DHT22;48119;53.218;6.576;2022-12-07T13:39:18;8.60;98.60
58554;DHT22;48119;53.218;6.576;2022-12-07T13:41:51;8.60;98.80
58554;DHT22;48119;53.218;6.576;2022-12-07T13:44:18;8.60;99.00
58554;DHT22;48119;53.218;6.576;2022-12-07T13:47:12;8.50;98.90
58554;DHT22;48119;53.218;6.576;2022-12-07T13:49:49;8.50;98.80
58554;DHT22;48119;53.218;6.576;2022-12-07T13:54:48;8.40;98.70
58554;DHT22;48119;53.218;6.576;2022-12-07T13:57:16;8.40;98.70
58554;DHT22;48119;53.218;6.576;2022-12-07T13:59:42;8.30;98.60
58554;DHT22;48119;53.218;6.576;2022-12-07T14:02:53;8.30;98.50
58554;DHT22;48119;53.218;6.576;2022-12-07T14:05:30;8.30;98.30
58554;DHT22;48119;53.218;6.576;2022-12-07T14:08:21;8.30;98.50
58554;DHT22;48119;53.218;6.576;2022-12-07T14:13:44;8.20;98.80
58554;DHT22;48119;53.218;6.576;2022-12-07T14:16:23;8.20;99.00
58554;DHT22;48119;53.218;6.576;2022-12-07T14:18:56;8.20;99.10
58554;DHT22;48119;53.218;6.576;2022-12-07T14:21:31;8.20;99.30
58554;DHT22;48119;53.218;6.576;2022-12-07T14:24:19;8.20;99.40
58554;DHT22;48119;53.218;6.576;2022-12-07T14:26:49;8.20;99.60
58554;DHT22;48119;53.218;6.576;2022-12-07T14:29:21;8.20;99.70
58554;DHT22;48119;53.218;6.576;2022-12-07T14:31:47;8.20;99.70
58554;DHT22;48119;53.218;6.576;2022-12-07T14:34:13;8.20;99.70
58554;DHT22;48119;53.218;6.576;2022-12-07T14:36:39;8.20;99.60
58554;DHT22;48119;53.218;6.576;2022-12-07T14:39:06;8.30;99.60
58554;DHT22;48119;53.218;6.576;2022-12-07T14:41:37;8.20;99.60
58554;DHT22;48119;53.218;6.576;2022-12-07T14:44:22;8.30;99.60
58554;DHT22;48119;53.218;6.576;2022-12-07T14:46:50;8.30;99.60
58554;DHT22;48119;53.218;6.576;2022-12-07T14:49:17;8.30;99.50
58554;DHT22;48119;53.218;6.576;2022-12-07T14:51:45;8.20;99.50
58554;DHT22;48119;53.218;6.576;2022-12-07T14:54:18;8.10;99.40
58554;DHT22;48119;53.218;6.576;2022-12-07T14:56:45;8.20;99.50
58554;DHT22;48119;53.218;6.576;2022-12-07T14:59:11;8.20;99.50
58554;DHT22;48119;53.218;6.576;2022-12-07T15:01:38;8.20;99.40
58554;DHT22;48119;53.218;6.576;2022-12-07T15:04:04;8.20;99.30
58554;DHT22;48119;53.218;6.576;2022-12-07T15:06:30;8.20;99.40
58554;DHT22;48119;53.218;6.576;2022-12-07T15:08:56;8.20;99.30
58554;DHT22;48119;53.218;6.576;2022-12-07T15:11:22;8.20;99.00
58554;DHT22;48119;53.218;6.576;2022-12-07T15:13:48;8.20;99.00
58554;DHT22;48119;53.218;6.576;2022-12-07T15:16:32;8.20;98.90
58554;DHT22;48119;53.218;6.576;2022-12-07T15:18:58;8.20;99.00
58554;DHT22;48119;53.218;6.576;2022-12-07T15:21:24;8.20;99.20
58554;DHT22;48119;53.218;6.576;2022-12-07T15:23:50;8.20;99.20
58554;DHT22;48119;53.218;6.576;2022-12-07T15:26:16;8.20;99.20
58554;DHT22;48119;53.218;6.576;2022-12-07T15:28:42;8.20;99.40
58554;DHT22;48119;53.218;6.576;2022-12-07T15:31:12;8.20;99.50
58554;DHT22;48119;53.218;6.576;2022-12-07T15:33:38;8.10;99.50
58554;DHT22;48119;53.218;6.576;2022-12-07T15:36:05;8.10;99.60
58554;DHT22;48119;53.218;6.576;2022-12-07T15:38:31;8.10;99.60
58554;DHT22;48119;53.218;6.576;2022-12-07T15:40:57;8.10;99.70
58554;DHT22;48119;53.218;6.576;2022-12-07T15:43:23;8.10;99.70
58554;DHT22;48119;53.218;6.576;2022-12-07T15:46:07;8.10;99.70
58554;DHT22;48119;53.218;6.576;2022-12-07T15:48:33;8.10;99.70
58554;DHT22;48119;53.218;6.576;2022-12-07T15:51:17;8.10;99.70
58554;DHT22;48119;53.218;6.576;2022-12-07T15:53:43;8.10;99.70
58554;DHT22;48119;53.218;6.576;2022-12-07T15:56:12;8.00;99.70
58554;DHT22;48119;53.218;6.576;2022-12-07T15:58:38;8.00;99.70
58554;DHT22;48119;53.218;6.576;2022-12-07T16:01:16;8.00;99.70
58554;DHT22;48119;53.218;6.576;2022-12-07T16:03:44;8.00;99.70
58554;DHT22;48119;53.218;6.576;2022-12-07T16:06:10;8.00;99.60
58554;DHT22;48119;53.218;6.576;2022-12-07T16:08:37;8.00;99.60
58554;DHT22;48119;53.218;6.576;2022-12-07T16:11:07;8.00;99.60
58554;DHT22;48119;53.218;6.576;2022-12-07T16:13:33;8.00;99.60
58554;DHT22;48119;53.218;6.576;2022-12-07T16:16:05;8.00;99.60
58554;DHT22;48119;53.218;6.576;2022-12-07T16:18:31;8.00;99.70
58554;DHT22;48119;53.218;6.576;2022-12-07T16:20:57;8.00;99.70
58554;DHT22;48119;53.218;6.576;2022-12-07T16:23:23;8.00;99.80
58554;DHT22;48119;53.218;6.576;2022-12-07T16:25:54;8.00;99.80
58554;DHT22;48119;53.218;6.576;2022-12-07T16:28:20;7.90;99.70
58554;DHT22;48119;53.218;6.576;2022-12-07T16:30:46;8.00;99.80
58554;DHT22;48119;53.218;6.576;2022-12-07T16:33:13;8.00;99.80
58554;DHT22;48119;53.218;6.576;2022-12-07T16:35:39;7.90;99.70
58554;DHT22;48119;53.218;6.576;2022-12-07T16:38:25;8.00;99.60
58554;DHT22;48119;53.218;6.576;2022-12-07T16:40:51;7.90;99.50
58554;DHT22;48119;53.218;6.576;2022-12-07T16:43:17;7.80;99.60
58554;DHT22;48119;53.218;6.576;2022-12-07T16:45:47;7.90;99.60
58554;DHT22;48119;53.218;6.576;2022-12-07T16:48:14;7.90;99.60
58554;DHT22;48119;53.218;6.576;2022-12-07T16:50:41;7.70;99.50
58554;DHT22;48119;53.218;6.576;2022-12-07T16:53:08;7.80;99.50
58554;DHT22;48119;53.218;6.576;2022-12-07T16:55:39;7.80;99.60
58554;DHT22;48119;53.218;6.576;2022-12-07T16:58:05;7.80;99.60
58554;DHT22;48119;53.218;6.576;2022-12-07T17:00:31;7.80;99.60
58554;DHT22;48119;53.218;6.576;2022-12-07T17:02:57;7.70;99.60
58554;DHT22;48119;53.218;6.576;2022-12-07T17:05:23;7.70;99.60
58554;DHT22;48119;53.218;6.576;2022-12-07T17:07:50;7.70;99.60
58554;DHT22;48119;53.218;6.576;2022-12-07T17:10:16;7.70;99.70
58554;DHT22;48119;53.218;6.576;2022-12-07T17:12:42;7.70;99.70
58554;DHT22;48119;53.218;6.576;2022-12-07T17:15:09;7.70;99.70
58554;DHT22;48119;53.218;6.576;2022-12-07T17:17:56;7.80;99.70
58554;DHT22;48119;53.218;6.576;2022-12-07T17:20:26;7.80;99.70
58554;DHT22;48119;53.218;6.576;2022-12-07T17:22:52;7.80;99.60
58554;DHT22;48119;53.218;6.576;2022-12-07T17:25:19;7.80;99.50
58554;DHT22;48119;53.218;6.576;2022-12-07T17:27:46;7.80;99.60
58554;DHT22;48119;53.218;6.576;2022-12-07T17:30:14;7.80;99.60
58554;DHT22;48119;53.218;6.576;2022-12-07T17:32:40;7.80;99.60
58554;DHT22;48119;53.218;6.576;2022-12-07T17:35:07;7.80;99.70
58554;DHT22;48119;53.218;6.576;2022-12-07T17:37:33;7.80;99.70
58554;DHT22;48119;53.218;6.576;2022-12-07T17:40:00;7.80;99.80
58554;DHT22;48119;53.218;6.576;2022-12-07T17:42:27;7.80;99.70
58554;DHT22;48119;53.218;6.576;2022-12-07T17:45:03;7.80;99.70
58554;DHT22;48119;53.218;6.576;2022-12-07T17:47:29;7.80;99.80
58554;DHT22;48119;53.218;6.576;2022-12-07T17:49:55;7.70;99.80
58554;DHT22;48119;53.218;6.576;2022-12-07T17:52:21;7.80;99.80
58554;DHT22;48119;53.218;6.576;2022-12-07T17:55:06;7.70;99.70
58554;DHT22;48119;53.218;6.576;2022-12-07T17:57:32;7.80;99.60
58554;DHT22;48119;53.218;6.576;2022-12-07T17:59:58;7.80;99.60
58554;DHT22;48119;53.218;6.576;2022-12-07T18:02:24;7.80;99.60
58554;DHT22;48119;53.218;6.576;2022-12-07T18:04:50;7.80;99.60
58554;DHT22;48119;53.218;6.576;2022-12-07T18:07:17;7.80;99.60
58554;DHT22;48119;53.218;6.576;2022-12-07T18:09:43;7.80;99.50